Time;durP1;ratioP1;P1;durP2;ratioP2;P2;SDS_P1;SDS_P2;PMS_P1;PMS_P2;Temp;Humidity;BMP_temperature;BMP_pressure;BME280_temperature;BME280_humidity;BME280_pressure;Samples;Min_cycle;Max_cycle;Signal;HPM_P1;HPM_P2
2022/08/19 00:01:17;;;;;;;3.90;2.87;;;19.10;99.90;;;;;;4992822;28;20547;-66
2022/08/19 00:03:44;;;;;;;4.67;3.83;;;19.10;99.90;;;;;;4999096;28;20432;-66
2022/08/19 00:06:11;;;;;;;5.30;3.67;;;19.10;99.90;;;;;;5012732;28;20914;-66
2022/08/19 00:08:40;;;;;;;10.03;3.47;;;19.20;99.90;;;;;;5006492;28;21035;-66
2022/08/19 00:11:07;;;;;;;13.40;3.80;;;19.20;99.90;;;;;;4992570;28;20452;-66
2022/08/19 00:13:35;;;;;;;5.63;3.30;;;19.30;99.90;;;;;;4996287;28;20536;-66
2022/08/19 00:16:03;;;;;;;5.23;4.23;;;19.30;99.90;;;;;;5012275;28;20444;-66
2022/08/19 00:18:30;;;;;;;5.83;4.20;;;19.30;99.90;;;;;;5008779;28;20540;-66
2022/08/19 00:20:57;;;;;;;5.60;4.20;;;19.30;99.90;;;;;;4996386;28;20487;-66
2022/08/19 00:23:24;;;;;;;4.20;3.40;;;19.30;99.90;;;;;;4997056;28;20471;-67
2022/08/19 00:25:53;;;;;;;5.27;3.47;;;19.40;99.90;;;;;;5015525;28;20446;-66
2022/08/19 00:28:21;;;;;;;4.43;3.70;;;19.40;99.90;;;;;;5014736;28;20447;-66
2022/08/19 00:30:48;;;;;;;4.80;3.47;;;19.40;99.90;;;;;;4996165;28;20449;-66
2022/08/19 00:33:16;;;;;;;5.97;3.77;;;19.40;99.90;;;;;;4996075;28;21003;-66
2022/08/19 00:35:43;;;;;;;4.30;3.37;;;19.50;99.90;;;;;;5015184;28;20875;-65
2022/08/19 00:38:10;;;;;;;5.07;3.33;;;19.50;99.90;;;;;;5015762;28;20770;-66
2022/08/19 00:40:37;;;;;;;4.70;3.20;;;19.50;99.90;;;;;;4996686;28;20447;-66
2022/08/19 00:43:12;;;;;;;4.40;3.70;;;19.40;99.90;;;;;;4996137;28;20502;-67
2022/08/19 00:45:43;;;;;;;4.30;3.37;;;19.40;99.90;;;;;;5013653;28;20435;-66
2022/08/19 00:48:11;;;;;;;5.30;3.93;;;19.40;99.90;;;;;;4995600;28;20977;-66
2022/08/19 00:50:42;;;;;;;4.97;4.40;;;19.40;99.90;;;;;;5012725;28;21007;-67
2022/08/19 00:53:11;;;;;;;5.43;3.50;;;19.40;99.90;;;;;;5005161;28;20530;-66
2022/08/19 00:55:40;;;;;;;5.17;4.63;;;19.30;99.90;;;;;;4995720;28;20449;-66
2022/08/19 00:58:12;;;;;;;4.50;3.90;;;19.30;99.90;;;;;;4996731;28;20477;-66
2022/08/19 01:00:39;;;;;;;6.03;5.43;;;19.20;99.90;;;;;;4995767;28;20440;-66
2022/08/19 01:03:10;;;;;;;5.30;4.57;;;19.20;99.90;;;;;;5008081;28;20494;-66
2022/08/19 01:05:38;;;;;;;5.00;4.10;;;19.20;99.90;;;;;;5015111;28;20447;-66
2022/08/19 01:08:07;;;;;;;6.10;4.73;;;19.20;99.90;;;;;;5013103;28;20785;-66
2022/08/19 01:10:40;;;;;;;6.07;5.27;;;19.20;99.90;;;;;;5015302;28;20443;-66
2022/08/19 01:13:07;;;;;;;5.40;4.00;;;19.10;99.90;;;;;;5001314;28;20550;-66
2022/08/19 01:15:42;;;;;;;6.83;4.47;;;19.20;99.90;;;;;;4995555;28;20523;-66
2022/08/19 01:18:12;;;;;;;6.00;4.00;;;19.20;99.90;;;;;;5008173;28;20496;-67
2022/08/19 01:20:43;;;;;;;6.33;4.13;;;19.10;99.90;;;;;;5007088;28;20456;-66
2022/08/19 01:23:12;;;;;;;4.50;3.30;;;19.00;99.90;;;;;;4995059;28;20476;-66
2022/08/19 01:25:45;;;;;;;5.93;4.07;;;18.90;99.90;;;;;;5001501;28;20435;-66
2022/08/19 01:28:18;;;;;;;5.37;3.23;;;18.90;99.90;;;;;;5005952;28;20474;-66
2022/08/19 01:30:45;;;;;;;4.87;3.73;;;18.80;99.90;;;;;;4994955;28;20977;-66
2022/08/19 01:33:13;;;;;;;4.70;3.57;;;18.80;99.90;;;;;;5000414;28;20480;-66
2022/08/19 01:35:42;;;;;;;6.33;3.63;;;18.80;99.90;;;;;;5014938;28;20431;-66
2022/08/19 01:38:20;;;;;;;5.47;4.20;;;18.80;99.90;;;;;;5012553;28;20808;-66
2022/08/19 01:40:47;;;;;;;6.97;4.50;;;18.80;99.90;;;;;;5014540;28;20501;-66
2022/08/19 01:43:15;;;;;;;4.97;3.50;;;18.70;99.90;;;;;;5009378;28;20990;-66
2022/08/19 01:45:42;;;;;;;5.00;4.50;;;18.70;99.90;;;;;;5006013;28;20826;-66
2022/08/19 01:48:09;;;;;;;5.10;3.40;;;18.70;99.90;;;;;;5014446;28;20466;-66
2022/08/19 01:50:37;;;;;;;5.00;3.90;;;18.60;99.90;;;;;;5013543;28;20525;-66
2022/08/19 01:53:06;;;;;;;5.17;3.47;;;18.60;99.90;;;;;;5013328;28;20596;-66
2022/08/19 01:55:36;;;;;;;5.90;3.50;;;18.50;99.90;;;;;;5013975;28;20446;-66
2022/08/19 01:58:06;;;;;;;4.17;3.27;;;18.50;99.90;;;;;;5006042;28;20447;-66
2022/08/19 02:00:34;;;;;;;6.90;3.80;;;18.40;99.90;;;;;;4994582;28;20440;-66
2022/08/19 02:03:01;;;;;;;5.40;4.20;;;18.40;99.90;;;;;;5000818;28;20439;-66
2022/08/19 02:05:29;;;;;;;5.00;4.10;;;18.40;99.90;;;;;;5014249;28;20431;-67
2022/08/19 02:07:57;;;;;;;4.07;3.27;;;18.40;99.90;;;;;;5008108;28;20816;-66
2022/08/19 02:10:24;;;;;;;6.30;4.20;;;18.50;99.90;;;;;;4994768;28;20444;-66
2022/08/19 02:12:53;;;;;;;4.37;3.70;;;18.50;99.90;;;;;;4998173;28;20514;-66
2022/08/19 02:15:21;;;;;;;5.20;3.57;;;18.50;99.90;;;;;;5013962;28;20450;-66
2022/08/19 02:17:49;;;;;;;5.63;3.20;;;18.60;99.90;;;;;;5009024;28;20444;-66
2022/08/19 02:20:17;;;;;;;4.33;3.53;;;18.60;99.90;;;;;;4994059;28;20455;-66
2022/08/19 02:22:44;;;;;;;4.13;3.20;;;18.60;99.90;;;;;;4995951;28;21336;-66
2022/08/19 02:25:12;;;;;;;4.60;3.50;;;18.60;99.90;;;;;;5013728;28;20474;-66
2022/08/19 02:27:39;;;;;;;5.20;3.47;;;18.70;99.90;;;;;;5011770;28;20596;-66
2022/08/19 02:30:12;;;;;;;6.17;3.67;;;18.70;99.90;;;;;;4981333;28;20431;-66
2022/08/19 02:32:39;;;;;;;4.43;3.10;;;18.70;99.90;;;;;;5012421;28;20933;-66
2022/08/19 02:35:08;;;;;;;4.97;3.53;;;18.70;99.90;;;;;;4993990;28;20938;-66
2022/08/19 02:40:19;;;;;;;5.77;4.10;;;18.70;99.90;;;;;;4984938;28;21004;-66
2022/08/19 02:42:47;;;;;;;5.00;3.50;;;18.80;99.90;;;;;;5012045;28;20439;-66
2022/08/19 02:45:15;;;;;;;4.60;3.67;;;18.80;99.90;;;;;;4993810;28;20444;-66
2022/08/19 02:47:43;;;;;;;3.50;2.87;;;18.80;99.90;;;;;;4993427;28;20539;-66
2022/08/19 02:50:11;;;;;;;3.97;3.50;;;18.80;99.90;;;;;;5010673;28;20828;-70
2022/08/19 02:52:38;;;;;;;5.10;4.20;;;18.80;99.90;;;;;;5013194;28;20438;-66
2022/08/19 02:55:06;;;;;;;5.10;4.27;;;18.80;99.90;;;;;;4994028;28;20498;-66
2022/08/19 02:57:34;;;;;;;5.80;5.17;;;18.80;99.90;;;;;;4993682;28;20855;-66
2022/08/19 03:00:02;;;;;;;4.20;3.57;;;18.80;99.90;;;;;;5010036;28;20518;-67
2022/08/19 03:02:31;;;;;;;5.30;3.93;;;18.80;99.90;;;;;;5001519;28;20443;-66
2022/08/19 03:04:58;;;;;;;4.60;4.07;;;18.80;99.90;;;;;;4993532;28;20445;-66
2022/08/19 03:07:25;;;;;;;4.13;2.87;;;18.80;99.90;;;;;;4993473;28;20867;-66
2022/08/19 03:09:59;;;;;;;5.50;4.67;;;18.80;99.90;;;;;;4993082;28;20542;-66
2022/08/19 03:12:26;;;;;;;5.90;3.67;;;18.80;99.90;;;;;;4992884;28;20436;-66
2022/08/19 03:14:54;;;;;;;4.00;3.30;;;18.70;99.90;;;;;;5010595;28;21047;-66
2022/08/19 03:17:21;;;;;;;4.10;3.70;;;18.70;99.90;;;;;;5011136;28;20851;-66
2022/08/19 03:19:50;;;;;;;6.00;4.37;;;18.70;99.90;;;;;;5012906;28;20459;-66
2022/08/19 03:22:18;;;;;;;5.37;4.23;;;18.60;99.90;;;;;;5003207;28;20451;-66
2022/08/19 03:24:46;;;;;;;3.80;2.50;;;18.50;99.90;;;;;;5007551;28;20494;-67
2022/08/19 03:27:13;;;;;;;4.60;3.50;;;18.50;99.90;;;;;;5004548;28;20451;-66
2022/08/19 03:29:41;;;;;;;5.87;3.43;;;18.50;99.90;;;;;;4992988;28;20467;-66
2022/08/19 03:32:08;;;;;;;5.03;3.90;;;18.40;99.90;;;;;;4998852;28;20446;-66
2022/08/19 03:34:37;;;;;;;7.87;3.80;;;18.40;99.90;;;;;;5012515;28;20486;-66
2022/08/19 03:37:08;;;;;;;4.37;3.37;;;18.30;99.90;;;;;;5007241;28;20450;-66
2022/08/19 03:39:37;;;;;;;5.17;3.90;;;18.30;99.90;;;;;;5006806;28;20442;-66
2022/08/19 03:42:05;;;;;;;4.53;3.50;;;18.20;99.90;;;;;;5008043;28;20918;-66
2022/08/19 03:44:33;;;;;;;6.13;4.03;;;18.20;99.90;;;;;;4993018;28;20440;-66
2022/08/19 03:47:01;;;;;;;4.93;3.73;;;18.20;99.90;;;;;;4992432;28;20852;-67
2022/08/19 03:49:32;;;;;;;4.37;3.70;;;18.10;99.90;;;;;;4992454;28;20458;-66
2022/08/19 03:52:01;;;;;;;5.80;3.53;;;18.10;99.90;;;;;;4992660;28;20550;-66
2022/08/19 03:54:30;;;;;;;7.50;3.60;;;18.10;99.90;;;;;;4994221;28;20541;-66
2022/08/19 03:56:58;;;;;;;6.83;4.43;;;18.10;99.90;;;;;;4996100;28;20443;-67
2022/08/19 03:59:28;;;;;;;5.10;3.70;;;18.10;99.90;;;;;;4996400;28;20930;-66
2022/08/19 04:01:58;;;;;;;6.33;4.00;;;18.10;99.90;;;;;;4996589;28;20458;-66
2022/08/19 04:04:26;;;;;;;4.57;3.93;;;18.10;99.90;;;;;;4997212;28;20443;-66
2022/08/19 04:06:54;;;;;;;4.23;3.37;;;18.10;99.90;;;;;;4996607;28;20868;-66
2022/08/19 04:09:21;;;;;;;5.07;3.50;;;18.10;99.90;;;;;;4996781;28;20942;-66
2022/08/19 04:11:53;;;;;;;4.60;3.60;;;18.10;99.90;;;;;;4996905;28;20451;-66
2022/08/19 04:14:23;;;;;;;7.50;6.70;;;18.10;99.90;;;;;;5016132;28;20570;-66
2022/08/19 04:16:52;;;;;;;6.47;5.80;;;18.20;99.90;;;;;;5009597;28;20789;-66
2022/08/19 04:19:20;;;;;;;7.50;5.90;;;18.20;99.90;;;;;;4996471;28;20455;-66
2022/08/19 04:21:49;;;;;;;5.80;5.13;;;18.20;99.90;;;;;;5000658;28;20438;-68
2022/08/19 04:24:17;;;;;;;5.33;4.83;;;18.20;99.90;;;;;;5015903;28;20878;-66
2022/08/19 04:26:44;;;;;;;4.27;3.87;;;18.10;99.90;;;;;;5011828;28;20442;-66
2022/08/19 04:29:15;;;;;;;7.53;4.10;;;18.10;99.90;;;;;;5004659;28;20434;-66
2022/08/19 04:31:44;;;;;;;5.90;3.73;;;18.10;99.90;;;;;;5012898;28;20439;-66
2022/08/19 04:34:13;;;;;;;7.43;4.00;;;18.00;99.90;;;;;;4996130;28;20605;-66
2022/08/19 04:36:44;;;;;;;5.20;3.80;;;18.10;99.90;;;;;;4995990;28;20443;-66
2022/08/19 04:39:13;;;;;;;4.90;3.80;;;18.10;99.90;;;;;;4996312;28;20448;-66
2022/08/19 04:44:30;;;;;;;7.17;4.70;;;18.10;99.90;;;;;;4996496;28;20518;-66
2022/08/19 04:46:58;;;;;;;5.63;4.00;;;18.10;99.90;;;;;;4995665;28;20483;-67
2022/08/19 04:49:25;;;;;;;6.37;4.20;;;18.10;99.90;;;;;;4996119;28;20863;-66
2022/08/19 04:51:54;;;;;;;3.90;3.30;;;18.20;99.90;;;;;;4995813;28;20969;-66
2022/08/19 04:54:25;;;;;;;7.10;3.60;;;18.20;99.90;;;;;;4995728;28;21076;-66
2022/08/19 04:56:53;;;;;;;7.80;4.57;;;18.20;99.90;;;;;;4995635;28;20439;-66
2022/08/19 04:59:21;;;;;;;4.63;4.10;;;18.20;99.90;;;;;;4995710;28;20444;-66
2022/08/19 05:01:50;;;;;;;7.50;4.80;;;18.20;99.90;;;;;;5003893;28;20450;-66
2022/08/19 05:04:22;;;;;;;7.37;5.30;;;18.20;99.90;;;;;;5012688;28;20785;-66
2022/08/19 05:06:52;;;;;;;6.90;5.97;;;18.20;99.90;;;;;;5015432;28;20442;-66
2022/08/19 05:09:20;;;;;;;11.73;7.03;;;18.20;99.90;;;;;;5010896;28;20466;-67
2022/08/19 05:11:49;;;;;;;8.77;6.70;;;18.20;99.90;;;;;;4995496;28;20435;-69
2022/08/19 05:14:16;;;;;;;8.73;6.70;;;18.20;99.90;;;;;;4998067;28;20475;-66
2022/08/19 05:16:43;;;;;;;7.30;6.40;;;18.20;99.90;;;;;;5015208;28;20500;-66
2022/08/19 05:24:41;;;;;;;8.23;5.80;;;18.20;99.90;;;;;;5007879;28;20473;-66
2022/08/19 05:27:08;;;;;;;6.50;5.60;;;18.20;99.90;;;;;;5010140;28;21021;-66
2022/08/19 05:29:36;;;;;;;7.33;5.70;;;18.20;99.90;;;;;;5011998;28;20438;-68
2022/08/19 05:32:10;;;;;;;5.93;5.13;;;18.30;99.90;;;;;;5010284;28;20451;-66
2022/08/19 05:34:39;;;;;;;7.53;5.73;;;18.30;99.90;;;;;;4995274;28;20558;-66
2022/08/19 05:37:11;;;;;;;6.17;4.90;;;18.40;99.90;;;;;;4998836;28;20434;-66
2022/08/19 05:39:40;;;;;;;8.30;4.70;;;18.40;99.90;;;;;;4997515;28;20436;-66
2022/08/19 05:42:11;;;;;;;6.87;4.90;;;18.40;99.90;;;;;;4985535;28;20464;-67
2022/08/19 05:44:43;;;;;;;6.80;4.63;;;18.50;99.90;;;;;;4980539;28;20451;-66
2022/08/19 05:47:13;;;;;;;6.87;5.40;;;18.50;99.90;;;;;;4989264;28;20535;-66
2022/08/19 05:49:42;;;;;;;7.00;5.50;;;18.60;99.90;;;;;;4994523;28;20495;-66
2022/08/19 05:52:11;;;;;;;7.70;5.57;;;18.70;99.90;;;;;;4993211;28;20448;-66
2022/08/19 05:54:41;;;;;;;6.10;5.20;;;18.70;99.90;;;;;;4987002;28;20479;-67
2022/08/19 05:57:09;;;;;;;6.80;5.20;;;18.70;99.90;;;;;;4992963;28;20456;-66
2022/08/19 05:59:36;;;;;;;5.63;4.47;;;18.80;99.90;;;;;;4991703;28;20490;-65
2022/08/19 06:02:04;;;;;;;5.97;5.40;;;18.80;99.90;;;;;;4990239;28;20440;-66
2022/08/19 06:04:32;;;;;;;4.90;4.10;;;18.80;99.90;;;;;;4993032;28;20458;-67
2022/08/19 06:07:01;;;;;;;5.00;4.13;;;18.60;99.90;;;;;;4993195;28;20806;-67
2022/08/19 06:09:29;;;;;;;5.60;4.23;;;18.50;99.90;;;;;;4992463;28;20433;-67
2022/08/19 06:11:59;;;;;;;11.60;4.77;;;18.40;99.90;;;;;;4989031;28;20522;-66
2022/08/19 06:14:30;;;;;;;4.47;3.50;;;18.40;99.90;;;;;;4992938;28;20498;-66
2022/08/19 06:17:01;;;;;;;4.47;3.57;;;18.50;99.90;;;;;;4991693;28;20439;-66
2022/08/19 06:19:30;;;;;;;5.23;3.97;;;18.50;99.90;;;;;;4989409;28;20436;-66
2022/08/19 06:21:58;;;;;;;4.67;4.17;;;18.60;99.90;;;;;;4995321;28;20443;-66
2022/08/19 06:24:31;;;;;;;5.87;4.70;;;18.80;99.90;;;;;;4992218;28;20477;-67
2022/08/19 06:27:00;;;;;;;8.80;5.57;;;18.90;99.90;;;;;;4995791;28;20439;-68
2022/08/19 06:29:29;;;;;;;5.47;4.93;;;19.10;99.90;;;;;;4990363;28;20539;-67
2022/08/19 06:31:59;;;;;;;4.67;3.90;;;19.20;99.90;;;;;;4996497;28;20499;-67
2022/08/19 06:34:28;;;;;;;4.50;3.70;;;19.40;99.90;;;;;;4992622;28;20490;-66
2022/08/19 06:36:56;;;;;;;5.07;3.80;;;19.50;99.90;;;;;;4993502;28;20437;-66
2022/08/19 06:39:27;;;;;;;5.10;4.37;;;19.70;99.90;;;;;;4994590;28;20968;-67
2022/08/19 06:41:56;;;;;;;5.30;3.83;;;19.70;99.90;;;;;;4992408;28;20448;-66
2022/08/19 06:44:26;;;;;;;4.10;3.20;;;19.80;99.90;;;;;;4992094;28;20796;-66
2022/08/19 06:46:54;;;;;;;7.00;4.60;;;19.90;99.90;;;;;;4992429;28;20450;-68
2022/08/19 06:49:30;;;;;;;5.93;3.80;;;20.10;99.90;;;;;;4988965;28;20842;-66
2022/08/19 06:51:59;;;;;;;6.17;3.83;;;20.20;99.90;;;;;;4992007;28;20482;-66
2022/08/19 06:54:30;;;;;;;4.73;3.83;;;20.40;99.90;;;;;;4992068;28;20486;-66
2022/08/19 06:57:02;;;;;;;5.77;3.60;;;20.50;99.90;;;;;;4992305;28;20509;-66
2022/08/19 06:59:32;;;;;;;5.37;4.20;;;20.60;99.90;;;;;;4992066;28;20447;-66
2022/08/19 07:02:03;;;;;;;6.00;4.30;;;20.70;99.90;;;;;;4991974;28;20509;-66
2022/08/19 07:04:33;;;;;;;6.80;3.47;;;20.80;99.90;;;;;;4991554;28;20468;-66
2022/08/19 07:07:05;;;;;;;5.97;4.23;;;20.70;99.90;;;;;;4992046;28;20443;-66
2022/08/19 07:09:36;;;;;;;5.37;4.50;;;20.50;99.90;;;;;;4989278;28;20468;-66
2022/08/19 07:12:06;;;;;;;6.03;4.30;;;20.40;99.90;;;;;;4991900;28;21004;-67
2022/08/19 07:14:37;;;;;;;6.70;4.53;;;20.30;99.90;;;;;;4988401;28;20483;-67
2022/08/19 07:17:11;;;;;;;5.50;4.47;;;20.30;99.90;;;;;;4991203;28;20434;-66
2022/08/19 07:19:39;;;;;;;6.47;5.00;;;20.10;99.90;;;;;;4990838;28;20851;-66
2022/08/19 07:22:08;;;;;;;6.43;5.83;;;20.10;99.90;;;;;;4991076;28;20443;-66
2022/08/19 07:24:38;;;;;;;7.90;5.00;;;20.10;99.90;;;;;;4992425;28;20478;-66
2022/08/19 07:27:09;;;;;;;5.80;5.20;;;20.20;99.90;;;;;;4991854;28;20505;-67
2022/08/19 07:29:38;;;;;;;7.50;4.40;;;20.10;99.90;;;;;;4990300;28;20454;-66
2022/08/19 07:32:08;;;;;;;6.30;4.77;;;20.00;99.90;;;;;;5000681;28;20480;-67
2022/08/19 07:34:37;;;;;;;8.13;5.30;;;20.00;99.90;;;;;;5011894;28;20528;-66
2022/08/19 07:37:05;;;;;;;8.03;4.90;;;19.90;99.90;;;;;;5012668;28;20783;-67
2022/08/19 07:39:35;;;;;;;5.63;5.03;;;19.90;99.90;;;;;;5012926;28;20485;-66
2022/08/19 07:42:07;;;;;;;6.57;5.13;;;19.80;99.90;;;;;;5012644;28;20529;-68
2022/08/19 07:44:34;;;;;;;5.00;4.50;;;19.80;99.90;;;;;;5013043;28;20473;-66
2022/08/19 07:47:02;;;;;;;8.03;4.53;;;19.90;99.90;;;;;;5012637;28;20445;-66
2022/08/19 07:49:29;;;;;;;5.00;4.50;;;19.80;99.90;;;;;;5012834;28;20489;-66
2022/08/19 07:52:01;;;;;;;7.20;5.07;;;19.80;99.90;;;;;;5012767;28;20443;-67
2022/08/19 07:54:30;;;;;;;7.10;4.90;;;19.70;99.90;;;;;;5012483;28;20465;-66
2022/08/19 07:57:04;;;;;;;6.10;4.77;;;19.70;99.90;;;;;;5012626;28;20444;-66
2022/08/19 07:59:31;;;;;;;6.63;4.83;;;19.70;99.90;;;;;;5012817;28;20476;-66
2022/08/19 08:02:00;;;;;;;5.63;5.03;;;19.70;99.90;;;;;;5013132;28;20909;-67
2022/08/19 08:09:58;;;;;;;7.47;4.90;;;19.60;99.90;;;;;;5012788;28;20421;-67
2022/08/19 08:12:30;;;;;;;6.20;4.83;;;19.60;99.90;;;;;;5012770;28;20502;-66
2022/08/19 08:15:03;;;;;;;6.33;5.73;;;19.50;99.90;;;;;;5012344;28;20484;-67
2022/08/19 08:17:31;;;;;;;7.70;5.60;;;19.50;99.90;;;;;;5002929;28;20515;-67
2022/08/19 08:19:59;;;;;;;7.30;5.80;;;19.40;99.90;;;;;;4998766;28;20450;-68
2022/08/19 08:25:15;;;;;;;5.97;5.37;;;19.50;99.90;;;;;;4994421;28;20459;-66
2022/08/19 08:27:49;;;;;;;6.07;4.43;;;19.60;99.90;;;;;;4997549;28;20446;-66
2022/08/19 08:30:20;;;;;;;5.93;5.33;;;19.60;99.90;;;;;;4993370;28;20476;-66
2022/08/19 08:32:47;;;;;;;7.43;5.87;;;19.70;99.90;;;;;;5000997;28;20519;-66
2022/08/19 08:35:18;;;;;;;5.50;4.53;;;19.80;99.90;;;;;;4997104;28;20493;-66
2022/08/19 08:37:45;;;;;;;5.80;5.17;;;19.80;99.90;;;;;;4996542;28;20475;-66
2022/08/19 08:40:20;;;;;;;6.47;4.80;;;19.80;99.90;;;;;;4995152;28;20552;-66
2022/08/19 08:42:58;;;;;;;7.10;5.10;;;19.70;99.90;;;;;;5004965;28;20829;-66
2022/08/19 08:45:25;;;;;;;6.30;4.80;;;19.70;99.90;;;;;;5002770;28;20505;-66
2022/08/19 08:47:56;;;;;;;6.03;5.40;;;19.70;99.90;;;;;;5002829;28;20519;-67
2022/08/19 08:50:30;;;;;;;5.13;4.63;;;19.80;99.90;;;;;;5002168;28;20531;-66
2022/08/19 08:52:59;;;;;;;7.10;5.30;;;19.80;99.90;;;;;;5002153;28;20480;-67
2022/08/19 08:55:29;;;;;;;7.40;5.83;;;19.80;99.90;;;;;;5003399;28;20525;-66
2022/08/19 08:58:02;;;;;;;5.90;4.80;;;19.80;99.90;;;;;;4998846;28;20477;-66
2022/08/19 09:00:32;;;;;;;8.10;6.10;;;19.90;99.90;;;;;;5002591;28;20539;-66
2022/08/19 09:03:01;;;;;;;5.87;5.10;;;19.90;99.90;;;;;;5004063;28;20456;-66
2022/08/19 09:05:36;;;;;;;6.73;6.00;;;20.00;99.90;;;;;;5002862;28;20533;-66
2022/08/19 09:08:14;;;;;;;5.70;5.07;;;20.00;99.90;;;;;;5004652;28;20621;-66
2022/08/19 09:10:48;;;;;;;6.80;5.50;;;20.10;99.90;;;;;;5002751;28;20438;-66
2022/08/19 09:13:28;;;;;;;6.60;5.50;;;20.10;99.90;;;;;;5000255;28;20446;-66
2022/08/19 09:16:01;;;;;;;6.47;5.57;;;20.10;99.90;;;;;;5006448;28;20569;-66
2022/08/19 09:18:40;;;;;;;7.67;6.37;;;20.20;99.90;;;;;;5004068;28;20566;-67
2022/08/19 09:21:08;;;;;;;8.23;6.60;;;20.10;99.90;;;;;;5003463;28;20445;-66
2022/08/19 09:23:43;;;;;;;6.83;6.03;;;20.20;99.90;;;;;;5005307;28;20977;-66
2022/08/19 09:26:13;;;;;;;9.53;5.80;;;20.20;99.90;;;;;;5001380;28;20447;-66
2022/08/19 09:28:43;;;;;;;8.17;5.80;;;20.20;99.90;;;;;;5001607;28;20938;-66
2022/08/19 09:31:11;;;;;;;8.00;5.50;;;20.20;99.90;;;;;;4999341;28;20468;-66
2022/08/19 09:33:38;;;;;;;9.20;6.37;;;20.20;99.90;;;;;;5001116;28;20448;-66
2022/08/19 09:36:08;;;;;;;11.60;7.43;;;20.30;99.90;;;;;;5007582;28;20491;-66
2022/08/19 09:38:36;;;;;;;9.20;7.23;;;20.20;99.90;;;;;;5004413;28;20494;-66
2022/08/19 09:41:13;;;;;;;7.93;5.50;;;20.10;99.90;;;;;;5004377;28;20477;-66
2022/08/19 09:43:45;;;;;;;9.10;6.97;;;20.20;99.90;;;;;;5002858;28;20460;-66
2022/08/19 09:46:12;;;;;;;12.00;7.70;;;20.30;99.90;;;;;;5004250;28;20921;-66
2022/08/19 09:48:40;;;;;;;13.37;6.97;;;20.40;99.90;;;;;;5004871;28;20450;-67
2022/08/19 09:51:15;;;;;;;8.70;6.00;;;20.40;99.90;;;;;;5004446;28;20449;-68
2022/08/19 09:53:43;;;;;;;9.23;7.10;;;20.30;99.90;;;;;;5004899;28;20500;-66
2022/08/19 09:56:14;;;;;;;13.07;8.97;;;20.30;99.90;;;;;;5004213;28;20539;-66
2022/08/19 09:58:42;;;;;;;9.77;7.93;;;20.40;99.90;;;;;;5002716;28;20479;-66
2022/08/19 10:01:10;;;;;;;7.90;6.13;;;20.70;99.90;;;;;;5002483;28;20447;-67
2022/08/19 10:03:38;;;;;;;10.13;5.80;;;20.90;99.90;;;;;;5002616;28;20865;-66
2022/08/19 10:06:06;;;;;;;6.07;4.93;;;21.10;99.90;;;;;;5005508;28;20434;-67
2022/08/19 10:08:39;;;;;;;6.87;5.50;;;21.10;99.90;;;;;;5002641;28;20446;-67
2022/08/19 10:11:06;;;;;;;6.93;5.47;;;21.30;99.90;;;;;;5008526;28;20516;-66
2022/08/19 10:13:35;;;;;;;6.63;4.87;;;21.60;99.90;;;;;;5008918;28;21015;-67
2022/08/19 10:16:08;;;;;;;6.93;4.70;;;22.10;99.90;;;;;;5005645;28;20521;-66
2022/08/19 10:18:36;;;;;;;6.33;4.73;;;22.80;99.90;;;;;;5005871;28;20969;-66
2022/08/19 10:21:09;;;;;;;4.90;4.00;;;23.20;99.90;;;;;;5005823;28;20477;-66
2022/08/19 10:23:37;;;;;;;4.90;3.63;;;23.30;99.90;;;;;;5007472;28;20987;-66
2022/08/19 10:26:06;;;;;;;5.07;3.60;;;23.60;99.90;;;;;;5011247;28;21000;-67
2022/08/19 10:28:34;;;;;;;4.23;3.57;;;23.90;99.90;;;;;;5008116;28;20454;-67
2022/08/19 10:31:07;;;;;;;5.43;4.93;;;24.20;99.90;;;;;;5011213;28;20478;-67
2022/08/19 10:33:35;;;;;;;5.03;4.40;;;24.50;99.90;;;;;;5007836;28;20475;-67
2022/08/19 10:36:04;;;;;;;7.00;4.50;;;24.80;99.50;;;;;;5011012;28;21150;-66
2022/08/19 10:38:31;;;;;;;8.00;4.47;;;25.00;99.10;;;;;;5009043;28;20463;-67
2022/08/19 10:40:58;;;;;;;5.50;4.40;;;25.20;98.70;;;;;;5001614;28;20842;-67
2022/08/19 10:43:26;;;;;;;6.70;4.20;;;25.40;96.30;;;;;;4993262;28;20502;-66
2022/08/19 10:45:59;;;;;;;4.90;3.90;;;25.60;97.00;;;;;;4993668;28;20480;-66
2022/08/19 10:48:27;;;;;;;4.73;3.60;;;25.50;94.30;;;;;;4992243;28;20452;-66
2022/08/19 10:53:39;;;;;;;5.00;4.10;;;25.30;92.10;;;;;;4993628;28;20430;-66
2022/08/19 10:58:51;;;;;;;4.10;3.53;;;24.90;93.00;;;;;;5013569;28;20433;-66
2022/08/19 11:01:18;;;;;;;4.00;3.60;;;24.80;94.10;;;;;;5013490;28;20439;-66
2022/08/19 11:03:52;;;;;;;4.20;2.87;;;24.80;93.40;;;;;;5012906;28;20936;-66
2022/08/19 11:06:20;;;;;;;4.40;3.20;;;24.80;93.40;;;;;;5013476;28;20525;-66
2022/08/19 11:08:52;;;;;;;5.90;4.07;;;24.70;93.80;;;;;;4998303;28;20447;-67
2022/08/19 11:11:19;;;;;;;4.17;3.37;;;24.70;94.50;;;;;;4992747;28;20467;-67
2022/08/19 11:13:47;;;;;;;4.67;4.17;;;24.70;93.50;;;;;;5012026;28;20533;-66
2022/08/19 11:16:17;;;;;;;4.17;3.20;;;24.80;94.00;;;;;;5011319;28;20482;-66
2022/08/19 11:18:47;;;;;;;5.97;3.10;;;25.10;94.80;;;;;;4994727;28;20859;-66
2022/08/19 11:21:18;;;;;;;3.60;2.63;;;25.60;95.30;;;;;;4994668;28;20797;-67
2022/08/19 11:23:47;;;;;;;3.17;2.10;;;26.20;94.70;;;;;;5002621;28;20463;-66
2022/08/19 11:26:15;;;;;;;3.40;2.40;;;26.70;92.40;;;;;;4993009;28;20458;-66
2022/08/19 11:28:42;;;;;;;3.20;2.17;;;26.90;88.80;;;;;;4996417;28;20473;-66
2022/08/19 11:31:13;;;;;;;3.50;2.03;;;26.90;87.40;;;;;;5005062;28;20483;-66
2022/08/19 11:33:40;;;;;;;2.90;1.90;;;27.00;86.30;;;;;;5011499;28;20434;-66
2022/08/19 11:36:09;;;;;;;2.50;1.60;;;27.00;86.90;;;;;;4998814;28;21028;-67
2022/08/19 11:38:37;;;;;;;2.60;1.57;;;26.90;86.10;;;;;;4994638;28;20495;-70
2022/08/19 11:41:09;;;;;;;2.50;1.70;;;26.80;86.20;;;;;;4993266;28;20453;-67
2022/08/19 11:43:37;;;;;;;2.10;1.20;;;26.60;85.80;;;;;;4993063;28;20938;-67
2022/08/19 11:46:06;;;;;;;2.47;1.33;;;26.40;85.90;;;;;;4993583;28;20853;-67
2022/08/19 11:48:34;;;;;;;5.93;1.73;;;26.40;87.90;;;;;;4993270;28;20927;-67
2022/08/19 11:51:06;;;;;;;2.27;1.50;;;26.50;88.10;;;;;;4993520;28;20536;-67
2022/08/19 11:53:35;;;;;;;2.70;1.70;;;26.90;89.00;;;;;;4993609;28;20443;-66
2022/08/19 11:56:02;;;;;;;2.10;1.17;;;27.30;90.10;;;;;;4993447;28;20566;-67
2022/08/19 11:58:30;;;;;;;2.20;1.17;;;27.50;85.50;;;;;;4993268;28;20479;-68
2022/08/19 12:01:00;;;;;;;2.30;1.23;;;27.70;84.90;;;;;;4993630;28;20486;-67
2022/08/19 12:03:27;;;;;;;1.70;0.80;;;27.80;86.40;;;;;;4993412;28;20436;-68
2022/08/19 12:05:54;;;;;;;2.00;0.73;;;27.90;83.30;;;;;;4993382;28;20522;-67
2022/08/19 12:08:21;;;;;;;3.00;0.70;;;27.80;81.90;;;;;;4993562;28;20998;-66
2022/08/19 12:10:50;;;;;;;3.30;0.80;;;27.50;78.30;;;;;;4993286;28;20523;-66
2022/08/19 12:13:18;;;;;;;2.33;0.83;;;27.20;78.40;;;;;;4992983;28;20498;-66
2022/08/19 12:15:47;;;;;;;1.60;0.60;;;27.00;80.30;;;;;;4995202;28;20935;-66
2022/08/19 12:18:15;;;;;;;3.60;0.60;;;26.90;82.20;;;;;;4997017;28;20478;-66
2022/08/19 12:20:45;;;;;;;2.03;0.80;;;26.80;80.70;;;;;;4996778;28;20934;-66
2022/08/19 12:23:12;;;;;;;1.70;0.80;;;26.70;80.30;;;;;;4996634;28;20494;-66
2022/08/19 12:25:48;;;;;;;1.97;1.00;;;26.40;80.40;;;;;;4996981;28;20514;-66
2022/08/19 12:28:16;;;;;;;1.80;0.80;;;26.10;80.70;;;;;;4996652;28;20489;-66
2022/08/19 12:30:43;;;;;;;2.40;1.43;;;25.80;81.40;;;;;;4996895;28;20985;-66
2022/08/19 12:33:15;;;;;;;2.80;1.50;;;25.40;81.50;;;;;;4996850;28;20526;-66
2022/08/19 12:35:43;;;;;;;3.10;1.93;;;25.10;82.90;;;;;;4996406;28;20945;-66
2022/08/19 12:38:11;;;;;;;2.63;1.53;;;24.80;83.50;;;;;;4996671;28;20483;-66
2022/08/19 12:40:39;;;;;;;4.30;1.40;;;24.50;84.40;;;;;;4996315;28;20440;-66
2022/08/19 12:43:06;;;;;;;3.03;1.43;;;24.30;85.30;;;;;;4996596;28;20435;-66
2022/08/19 12:45:35;;;;;;;3.27;1.80;;;24.10;86.30;;;;;;4996524;28;20930;-66
2022/08/19 12:48:03;;;;;;;3.93;2.60;;;24.00;87.10;;;;;;4996628;28;20471;-67
2022/08/19 12:50:30;;;;;;;3.47;2.27;;;23.80;87.50;;;;;;4995988;28;20451;-66
2022/08/19 12:52:57;;;;;;;3.47;1.87;;;23.60;88.40;;;;;;4996561;28;20436;-67
2022/08/19 12:55:24;;;;;;;2.47;1.30;;;23.60;90.00;;;;;;4996051;28;20505;-66
2022/08/19 12:57:52;;;;;;;2.60;1.77;;;23.60;90.40;;;;;;4996579;28;20487;-67
2022/08/19 13:00:21;;;;;;;2.23;1.37;;;23.70;90.00;;;;;;4996481;28;20542;-66
2022/08/19 13:02:52;;;;;;;1.90;1.03;;;23.80;89.50;;;;;;4996532;28;20534;-66
2022/08/19 13:05:22;;;;;;;2.90;1.77;;;23.90;90.10;;;;;;4996376;28;20474;-67
2022/08/19 13:07:50;;;;;;;2.30;1.33;;;24.00;89.80;;;;;;4996177;28;20440;-68
2022/08/19 13:10:21;;;;;;;2.43;1.40;;;24.10;89.10;;;;;;4996345;28;20538;-67
2022/08/19 13:12:50;;;;;;;2.50;1.50;;;24.10;88.40;;;;;;4995924;28;20478;-67
2022/08/19 13:15:20;;;;;;;2.23;1.27;;;24.00;88.80;;;;;;4996334;28;20444;-67
2022/08/19 13:17:49;;;;;;;3.07;1.77;;;24.10;89.80;;;;;;4995842;28;20577;-67
2022/08/19 13:20:18;;;;;;;2.73;1.60;;;24.00;89.50;;;;;;4995918;28;20915;-67